createdAt,value
2018-05-07T00:00:50.589Z,100439.09
2018-05-07T00:03:19.830Z,100434.47
2018-05-07T00:05:49.106Z,100429.57
2018-05-07T00:08:18.232Z,100433.67
2018-05-07T00:10:47.454Z,100430.61
2018-05-07T00:13:17.447Z,100435.69
2018-05-07T00:15:46.681Z,100428.45
2018-05-07T00:18:16.791Z,100433.39
2018-05-07T00:20:46.039Z,100432.32
2018-05-07T00:23:15.228Z,100430.82
2018-05-07T00:25:44.426Z,100428.27
2018-05-07T00:28:13.718Z,100425.21
2018-05-07T00:30:43.670Z,100419.78
2018-05-07T00:33:13.048Z,100424.61
2018-05-07T00:35:42.237Z,100422.42
2018-05-07T00:38:11.630Z,100428.67
2018-05-07T00:40:40.831Z,100429.40
2018-05-07T00:43:10.084Z,100428.69
2018-05-07T00:45:39.534Z,100432.76
2018-05-07T00:48:09.487Z,100430.05
2018-05-07T00:50:38.673Z,100435.94
2018-05-07T00:53:08.129Z,100433.40
2018-05-07T00:55:38.113Z,100433.53
2018-05-07T00:58:07.315Z,100436.28
2018-05-07T01:00:37.301Z,100435.54
2018-05-07T01:03:06.522Z,100436.98
2018-05-07T01:05:35.729Z,100438.80
2018-05-07T01:08:05.722Z,100438.30
2018-05-07T01:10:34.918Z,100438.08
2018-05-07T01:13:04.119Z,100435.52
2018-05-07T01:15:33.345Z,100436.36
2018-05-07T01:18:03.315Z,100443.32
2018-05-07T01:20:32.536Z,100448.45
2018-05-07T01:23:01.745Z,100449.12
2018-05-07T01:25:32.666Z,100447.95
2018-05-07T01:28:01.995Z,100453.81
2018-05-07T01:30:32.033Z,100447.11
2018-05-07T01:33:01.260Z,100444.16
2018-05-07T01:35:30.499Z,100447.51
2018-05-07T01:38:00.505Z,100440.92
2018-05-07T01:40:29.993Z,100441.27
2018-05-07T01:42:59.246Z,100439.78
2018-05-07T01:45:29.209Z,100441.25
2018-05-07T01:47:58.413Z,100436.38
2018-05-07T01:50:27.729Z,100432.86
2018-05-07T01:52:56.970Z,100437.31
2018-05-07T01:55:26.277Z,100432.13
2018-05-07T01:57:55.489Z,100430.14
2018-05-07T02:00:24.713Z,100424.56
2018-05-07T02:02:54.729Z,100415.59
2018-05-07T02:05:24.108Z,100413.77
2018-05-07T02:07:53.365Z,100424.36
2018-05-07T02:10:22.568Z,100426.81
2018-05-07T02:12:51.767Z,100421.94
2018-05-07T02:15:21.056Z,100420.41
2018-05-07T02:17:50.274Z,100422.41
2018-05-07T02:20:19.567Z,100418.95
2018-05-07T02:22:48.795Z,100419.28
2018-05-07T02:25:18.018Z,100415.83
2018-05-07T02:27:47.264Z,100415.50
2018-05-07T02:30:16.468Z,100422.94
2018-05-07T02:32:45.729Z,100422.44
2018-05-07T02:35:15.714Z,100420.05
2018-05-07T02:37:44.960Z,100418.69
2018-05-07T02:40:14.380Z,100423.80
2018-05-07T02:42:43.589Z,100418.42
2018-05-07T02:45:12.812Z,100423.80
2018-05-07T02:47:43.563Z,100420.24
2018-05-07T02:50:13.553Z,100419.61
2018-05-07T02:52:42.768Z,100420.63
2018-05-07T02:55:12.224Z,100417.48
2018-05-07T02:57:41.489Z,100415.09
2018-05-07T03:00:10.721Z,100412.59
2018-05-07T03:02:39.934Z,100408.51
2018-05-07T03:05:09.162Z,100411.56
2018-05-07T03:07:38.361Z,100411.00
2018-05-07T03:10:08.393Z,100400.56
2018-05-07T03:12:37.583Z,100399.37
2018-05-07T03:15:07.625Z,100396.81
2018-05-07T03:17:36.858Z,100390.06
2018-05-07T03:20:06.813Z,100390.63
2018-05-07T03:22:35.985Z,100387.10
2018-05-07T03:25:05.234Z,100395.63
2018-05-07T03:27:35.985Z,100384.03
2018-05-07T03:30:05.226Z,100386.37
2018-05-07T03:32:34.486Z,100389.39
2018-05-07T03:35:03.738Z,100391.25
2018-05-07T03:37:32.927Z,100392.28
2018-05-07T03:40:02.937Z,100389.37
2018-05-07T03:42:32.409Z,100380.02
2018-05-07T03:45:01.686Z,100376.66
2018-05-07T03:47:30.901Z,100372.11
2018-05-07T03:50:00.126Z,100377.97
2018-05-07T03:52:29.467Z,100374.33
2018-05-07T03:54:58.677Z,100368.48
2018-05-07T03:57:27.916Z,100367.19
2018-05-07T03:59:57.263Z,100367.52
2018-05-07T04:02:27.257Z,100360.88
2018-05-07T04:04:56.458Z,100367.29
2018-05-07T04:07:26.650Z,100361.33
2018-05-07T04:09:55.673Z,100367.56
2018-05-07T04:12:25.679Z,100364.19
2018-05-07T04:14:54.881Z,100362.92
2018-05-07T04:17:42.790Z,100358.60
2018-05-07T04:20:29.766Z,100364.28
2018-05-07T04:23:17.743Z,100357.25
2018-05-07T04:25:46.955Z,100359.02
2018-05-07T04:28:16.169Z,100364.95
2018-05-07T04:30:46.151Z,100356.86
2018-05-07T04:33:16.234Z,100351.41
2018-05-07T04:35:45.470Z,100355.83
2018-05-07T04:38:14.709Z,100356.72
2018-05-07T04:40:44.782Z,100357.45
2018-05-07T04:43:14.186Z,100359.69
2018-05-07T04:45:43.313Z,100364.10
2018-05-07T04:48:13.362Z,100363.47
2018-05-07T04:50:42.666Z,100357.69
2018-05-07T04:53:11.872Z,100362.41
2018-05-07T04:55:41.096Z,100360.25
2018-05-07T04:58:10.444Z,100360.98
2018-05-07T05:00:39.768Z,100359.18
2018-05-07T05:03:09.003Z,100357.81
2018-05-07T05:05:38.225Z,100360.03
2018-05-07T05:08:08.233Z,100356.30
2018-05-07T05:10:37.458Z,100362.69
2018-05-07T05:13:06.665Z,100362.42
2018-05-07T05:15:35.886Z,100361.11
2018-05-07T05:18:05.112Z,100366.55
2018-05-07T05:20:35.811Z,100366.20
2018-05-07T05:23:05.044Z,100365.38
2018-05-07T05:25:34.307Z,100363.59
2018-05-07T05:28:03.557Z,100370.06
2018-05-07T05:30:32.769Z,100368.93
2018-05-07T05:33:02.799Z,100370.23
2018-05-07T05:35:32.757Z,100369.08
2018-05-07T05:38:02.792Z,100365.83
2018-05-07T05:40:32.042Z,100366.21
2018-05-07T05:43:01.333Z,100369.33
2018-05-07T05:45:30.550Z,100365.45
2018-05-07T05:47:59.784Z,100366.63
2018-05-07T05:50:28.995Z,100365.44
2018-05-07T05:52:58.230Z,100367.23
2018-05-07T05:55:27.509Z,100368.98
2018-05-07T05:57:56.755Z,100374.18
2018-05-07T06:00:25.995Z,100382.81
2018-05-07T06:02:56.032Z,100375.14
2018-05-07T06:05:26.103Z,100375.69
2018-05-07T06:07:55.705Z,100378.53
2018-05-07T06:10:24.939Z,100377.97
2018-05-07T06:12:54.198Z,100377.32
2018-05-07T06:15:23.435Z,100374.42
2018-05-07T06:17:52.654Z,100373.73
2018-05-07T06:20:21.904Z,100374.67
2018-05-07T06:22:51.107Z,100374.45
2018-05-07T06:25:20.319Z,100370.00
2018-05-07T06:27:50.313Z,100365.09
2018-05-07T06:30:19.562Z,100367.38
2018-05-07T06:32:48.776Z,100363.56
2018-05-07T06:35:18.030Z,100371.09
2018-05-07T06:37:48.019Z,100368.33
2018-05-07T06:40:17.301Z,100368.67
2018-05-07T06:42:47.238Z,100375.58
2018-05-07T06:45:17.989Z,100375.23
2018-05-07T06:47:47.992Z,100368.83
2018-05-07T06:50:17.251Z,100365.78
2018-05-07T06:52:46.486Z,100367.48
2018-05-07T06:55:15.741Z,100368.34
2018-05-07T06:57:44.976Z,100371.37
2018-05-07T07:00:14.196Z,100373.49
2018-05-07T07:02:44.295Z,100374.59
2018-05-07T07:05:13.453Z,100373.65
2018-05-07T07:07:42.717Z,100370.46
2018-05-07T07:10:12.683Z,100374.08
2018-05-07T07:12:41.945Z,100376.29
2018-05-07T07:15:11.191Z,100380.81
2018-05-07T07:17:40.432Z,100375.59
2018-05-07T07:20:09.861Z,100371.48
2018-05-07T07:22:39.080Z,100369.47
2018-05-07T07:25:08.322Z,100375.28
2018-05-07T07:27:38.313Z,100373.97
2018-05-07T07:30:07.537Z,100369.78
2018-05-07T07:32:36.801Z,100364.93
2018-05-07T07:35:06.025Z,100371.80
2018-05-07T07:37:36.032Z,100371.30
2018-05-07T07:40:05.236Z,100373.59
2018-05-07T07:42:34.471Z,100369.98
2018-05-07T07:45:03.737Z,100368.34
2018-05-07T07:47:33.525Z,100371.69
2018-05-07T07:50:02.749Z,100369.84
2018-05-07T07:52:32.791Z,100368.52
2018-05-07T07:55:03.493Z,100365.45
2018-05-07T07:57:33.487Z,100365.53
2018-05-07T08:00:02.821Z,100360.05
2018-05-07T08:02:32.058Z,100363.59
2018-05-07T08:05:01.277Z,100368.20
2018-05-07T08:07:30.555Z,100371.05
2018-05-07T08:09:59.857Z,100368.70
2018-05-07T08:12:29.062Z,100364.31
2018-05-07T08:14:58.333Z,100359.50
2018-05-07T08:17:27.692Z,100359.61
2018-05-07T08:19:56.929Z,100356.59
2018-05-07T08:22:26.159Z,100364.27
2018-05-07T08:24:55.385Z,100357.38
2018-05-07T08:27:24.608Z,100357.84
2018-05-07T08:29:54.585Z,100364.02
2018-05-07T08:32:23.838Z,100364.06
2018-05-07T08:34:53.042Z,100360.59
2018-05-07T08:37:22.270Z,100355.11
2018-05-07T08:39:51.475Z,100345.92
2018-05-07T08:42:20.722Z,100345.83
2018-05-07T08:44:49.958Z,100348.20
2018-05-07T08:47:19.185Z,100340.66
2018-05-07T08:49:48.394Z,100342.63
2018-05-07T08:52:18.423Z,100338.73
2018-05-07T08:54:48.565Z,100338.14
2018-05-07T08:57:17.814Z,100333.11
2018-05-07T08:59:48.554Z,100336.20
2018-05-07T09:02:18.620Z,100330.80
2018-05-07T09:04:48.802Z,100330.41
2018-05-07T09:07:18.801Z,100325.75
2018-05-07T09:09:48.797Z,100323.50
2018-05-07T09:12:18.081Z,100325.84
2018-05-07T09:14:47.397Z,100329.25
2018-05-07T09:17:16.597Z,100322.43
2018-05-07T09:19:47.569Z,100322.27
2018-05-07T09:22:17.588Z,100315.14
2018-05-07T09:24:47.017Z,100318.14
2018-05-07T09:27:16.304Z,100310.12
2018-05-07T09:29:45.626Z,100317.27
2018-05-07T09:32:14.852Z,100311.80
2018-05-07T09:34:44.096Z,100303.84
2018-05-07T09:37:13.297Z,100311.59
2018-05-07T09:39:42.521Z,100308.45
2018-05-07T09:42:11.777Z,100300.16
2018-05-07T09:44:41.764Z,100305.33
2018-05-07T09:47:10.962Z,100309.67
2018-05-07T09:49:40.650Z,100297.64
2018-05-07T09:52:09.889Z,100299.20
2018-05-07T09:54:39.869Z,100288.69
2018-05-07T09:57:09.076Z,100289.03
2018-05-07T09:59:38.298Z,100294.10
2018-05-07T10:02:08.296Z,100288.09
2018-05-07T10:04:37.513Z,100289.08
2018-05-07T10:07:07.497Z,100284.33
2018-05-07T10:09:36.913Z,100281.82
2018-05-07T10:12:06.112Z,100283.25
2018-05-07T10:14:35.330Z,100267.81
2018-05-07T10:17:05.352Z,100267.36
2018-05-07T10:19:34.959Z,100268.30
2018-05-07T10:22:04.928Z,100256.81
2018-05-07T10:24:34.152Z,100262.41
2018-05-07T10:27:03.405Z,100262.12
2018-05-07T10:29:32.765Z,100255.38
2018-05-07T10:32:02.051Z,100265.07
2018-05-07T10:34:31.256Z,100260.31
2018-05-07T10:37:00.475Z,100248.26
2018-05-07T10:39:30.576Z,100255.41
2018-05-07T10:42:00.605Z,100247.69
2018-05-07T10:44:30.600Z,100245.88
2018-05-07T10:46:59.969Z,100246.80
2018-05-07T10:49:29.181Z,100256.69
2018-05-07T10:51:59.970Z,100246.65
2018-05-07T10:54:29.177Z,100245.89
2018-05-07T10:56:58.420Z,100236.45
2018-05-07T10:59:27.628Z,100235.12
2018-05-07T11:01:56.838Z,100235.72
2018-05-07T11:04:26.816Z,100234.34
2018-05-07T11:06:56.088Z,100227.42
2018-05-07T11:09:25.392Z,100228.82
2018-05-07T11:11:55.343Z,100217.16
2018-05-07T11:14:24.553Z,100212.39
2018-05-07T11:16:54.613Z,100208.58
2018-05-07T11:19:23.973Z,100214.10
2018-05-07T11:21:54.052Z,100205.80
2018-05-07T11:24:23.237Z,100217.06
2018-05-07T11:26:52.530Z,100217.03
2018-05-07T11:29:21.770Z,100201.78
2018-05-07T11:31:51.009Z,100209.68
2018-05-07T11:34:20.236Z,100210.47
2018-05-07T11:36:49.509Z,100209.27
2018-05-07T11:39:18.753Z,100206.27
2018-05-07T11:41:48.718Z,100208.02
2018-05-07T11:44:17.976Z,100217.31
2018-05-07T11:46:47.164Z,100201.70
2018-05-07T11:49:16.375Z,100194.00
2018-05-07T11:51:45.577Z,100192.98
2018-05-07T11:54:14.865Z,100190.77
2018-05-07T11:56:44.070Z,100189.37
2018-05-07T11:59:13.277Z,100194.08
2018-05-07T12:01:43.233Z,100201.02
2018-05-07T12:04:12.513Z,100189.79
2018-05-07T12:06:42.082Z,100181.81
2018-05-07T12:09:11.300Z,100182.76
2018-05-07T12:11:40.522Z,100184.33
2018-05-07T12:14:10.674Z,100172.45
2018-05-07T12:16:40.028Z,100176.18
2018-05-07T12:19:10.059Z,100172.37
2018-05-07T12:21:39.294Z,100173.09
2018-05-07T12:24:08.506Z,100173.80
2018-05-07T12:26:37.762Z,100156.77
2018-05-07T12:29:06.970Z,100159.39
2018-05-07T12:31:36.386Z,100151.88
2018-05-07T12:34:05.492Z,100150.38
2018-05-07T12:36:35.544Z,100159.59
2018-05-07T12:39:05.589Z,100155.27
2018-05-07T12:41:34.873Z,100152.84
2018-05-07T12:44:04.091Z,100148.31
2018-05-07T12:46:34.065Z,100147.88
2018-05-07T12:49:03.261Z,100148.74
2018-05-07T12:51:33.350Z,100140.61
2018-05-07T12:54:02.570Z,100135.56
2018-05-07T12:56:31.804Z,100128.83
2018-05-07T12:59:01.142Z,100127.98
2018-05-07T13:01:30.291Z,100131.73
2018-05-07T13:03:59.526Z,100122.20
2018-05-07T13:06:29.568Z,100128.59
2018-05-07T13:08:58.773Z,100139.88
2018-05-07T13:11:28.083Z,100115.77
2018-05-07T13:13:57.497Z,100115.16
2018-05-07T13:16:27.508Z,100104.92
2018-05-07T13:18:57.889Z,100112.02
2018-05-07T13:21:27.186Z,100104.17
2018-05-07T13:23:56.434Z,100103.21
2018-05-07T13:26:26.434Z,100109.39
2018-05-07T13:28:56.434Z,100096.51
2018-05-07T13:31:25.663Z,100090.38
2018-05-07T13:33:55.675Z,100081.19
2018-05-07T13:36:24.864Z,100084.89
2018-05-07T13:38:54.877Z,100079.46
2018-05-07T13:41:24.860Z,100081.97
2018-05-07T13:43:54.093Z,100065.20
2018-05-07T13:46:24.814Z,100074.95
2018-05-07T13:48:54.045Z,100069.30
2018-05-07T13:51:23.261Z,100077.45
2018-05-07T13:53:52.681Z,100083.61
2018-05-07T13:56:21.934Z,100061.03
2018-05-07T13:58:51.918Z,100051.17
2018-05-07T14:01:21.154Z,100055.70
2018-05-07T14:03:51.146Z,100051.31
2018-05-07T14:06:20.473Z,100036.05
2018-05-07T14:08:50.561Z,100033.98
2018-05-07T14:11:21.356Z,100033.87
2018-05-07T14:13:50.546Z,100024.83
2018-05-07T14:16:19.765Z,100036.30
2018-05-07T14:18:49.050Z,100026.54
2018-05-07T14:21:18.295Z,100024.76
2018-05-07T14:23:47.817Z,100025.04
2018-05-07T14:26:17.898Z,100027.82
2018-05-07T14:28:47.067Z,100015.39
2018-05-07T14:31:16.289Z,100016.32
2018-05-07T14:33:45.512Z,100012.94
2018-05-07T14:36:14.734Z,100009.73
2018-05-07T14:38:44.007Z,100011.01
2018-05-07T14:41:13.242Z,100010.37
2018-05-07T14:43:42.655Z,100010.41
2018-05-07T14:46:11.883Z,100009.16
2018-05-07T14:48:41.098Z,100001.60
2018-05-07T14:51:10.306Z,100006.73
2018-05-07T14:53:39.554Z,100006.87
2018-05-07T14:56:08.817Z,99996.79
2018-05-07T14:58:38.874Z,100004.16
2018-05-07T15:01:08.059Z,100008.55
2018-05-07T15:03:37.265Z,99988.78
2018-05-07T15:06:06.465Z,99993.59
2018-05-07T15:08:35.739Z,99984.80
2018-05-07T15:11:04.967Z,99989.21
2018-05-07T15:13:34.273Z,100002.92
2018-05-07T15:16:03.453Z,99986.55
2018-05-07T15:18:32.688Z,99982.98
2018-05-07T15:21:01.905Z,99980.17
2018-05-07T15:23:31.927Z,99980.53
2018-05-07T15:26:01.170Z,99976.06
2018-05-07T15:28:30.389Z,99978.59
2018-05-07T15:30:59.669Z,99976.13
2018-05-07T15:33:28.901Z,99970.36
2018-05-07T15:35:58.196Z,99968.97
2018-05-07T15:38:27.433Z,99971.58
2018-05-07T15:40:56.729Z,99977.59
2018-05-07T15:43:25.965Z,99969.30
2018-05-07T15:45:55.271Z,99960.05
2018-05-07T15:48:24.553Z,99955.02
2018-05-07T15:50:53.800Z,99966.92
2018-05-07T15:53:23.070Z,99971.16
2018-05-07T15:55:52.307Z,99959.48
2018-05-07T15:58:21.603Z,99959.70
2018-05-07T16:00:51.626Z,99956.88
2018-05-07T16:03:21.054Z,99940.86
2018-05-07T16:05:51.002Z,99942.98
2018-05-07T16:08:20.241Z,99947.11
2018-05-07T16:10:50.223Z,99936.83
2018-05-07T16:13:19.461Z,99939.78
2018-05-07T16:15:49.478Z,99937.22
2018-05-07T16:18:18.709Z,99930.84
2018-05-07T16:20:47.929Z,99935.05
2018-05-07T16:23:17.311Z,99945.81
2018-05-07T16:25:46.385Z,99931.39
2018-05-07T16:28:15.646Z,99928.44
2018-05-07T16:30:44.819Z,99936.80
2018-05-07T16:33:14.061Z,99928.08
2018-05-07T16:35:44.128Z,99924.66
2018-05-07T16:38:13.285Z,99925.83
2018-05-07T16:40:42.545Z,99925.48
2018-05-07T16:43:11.766Z,99921.95
2018-05-07T16:45:41.778Z,99918.23
2018-05-07T16:48:11.742Z,99921.83
2018-05-07T16:50:41.273Z,99901.60
2018-05-07T16:53:10.559Z,99907.80
2018-05-07T16:55:39.790Z,99914.00
2018-05-07T16:58:09.024Z,99907.30
2018-05-07T17:00:38.221Z,99903.75
2018-05-07T17:03:07.493Z,99902.57
2018-05-07T17:05:37.500Z,99901.75
2018-05-07T17:08:06.729Z,99901.14
2018-05-07T17:10:35.954Z,99897.55
2018-05-07T17:13:05.231Z,99903.92
2018-05-07T17:15:35.171Z,99901.98
2018-05-07T17:18:04.410Z,99898.78
2018-05-07T17:20:34.393Z,99894.33
2018-05-07T17:23:03.642Z,99893.02
2018-05-07T17:25:33.214Z,99892.66
2018-05-07T17:28:02.461Z,99894.33
2018-05-07T17:30:31.653Z,99890.20
2018-05-07T17:33:00.893Z,99898.03
2018-05-07T17:35:30.112Z,99898.98
2018-05-07T17:37:59.361Z,99890.96
2018-05-07T17:40:28.611Z,99896.39
2018-05-07T17:42:57.813Z,99899.23
2018-05-07T17:45:45.250Z,99894.29
2018-05-07T18:01:51.512Z,99884.88
2018-05-07T18:04:21.483Z,99889.69
2018-05-07T18:06:50.679Z,99884.98
2018-05-07T18:09:21.529Z,99881.28
2018-05-07T18:11:51.521Z,99887.58
2018-05-07T18:14:21.381Z,99877.36
2018-05-07T18:16:50.686Z,99885.00
2018-05-07T18:19:20.763Z,99884.86
2018-05-07T18:21:50.002Z,99884.91
2018-05-07T18:24:19.990Z,99886.97
2018-05-07T18:26:49.324Z,99885.21
2018-05-07T18:29:19.327Z,99887.66
2018-05-07T18:31:49.410Z,99885.39
2018-05-07T18:34:18.633Z,99892.58
2018-05-07T18:36:48.727Z,99893.84
2018-05-07T18:39:17.983Z,99884.63
2018-05-07T18:41:47.262Z,99892.56
2018-05-07T18:44:17.304Z,99886.08
2018-05-07T18:46:46.573Z,99889.48
2018-05-07T18:49:15.806Z,99887.17
2018-05-07T18:51:45.029Z,99900.02
2018-05-07T18:54:14.269Z,99896.12
2018-05-07T18:56:44.238Z,99899.34
2018-05-07T18:59:13.489Z,99898.39
2018-05-07T19:01:42.716Z,99902.16
2018-05-07T19:04:12.169Z,99897.64
2018-05-07T19:06:41.427Z,99902.84
2018-05-07T19:09:10.706Z,99901.47
2018-05-07T19:11:39.952Z,99897.53
2018-05-07T19:14:09.971Z,99901.30
2018-05-07T19:16:39.202Z,99904.89
2018-05-07T19:19:08.493Z,99914.59
2018-05-07T19:21:37.759Z,99909.87
2018-05-07T19:24:06.996Z,99920.30
2018-05-07T19:26:36.199Z,99916.77
2018-05-07T19:29:05.452Z,99915.83
2018-05-07T19:31:34.780Z,99913.66
2018-05-07T19:34:04.788Z,99919.41
2018-05-07T19:36:34.797Z,99913.70
2018-05-07T19:39:04.054Z,99912.33
2018-05-07T19:41:33.417Z,99920.19
2018-05-07T19:44:02.641Z,99919.80
2018-05-07T19:46:31.885Z,99920.98
2018-05-07T19:49:01.144Z,99918.81
2018-05-07T19:51:30.389Z,99919.81
2018-05-07T19:54:00.383Z,99913.11
2018-05-07T19:56:29.649Z,99916.47
2018-05-07T19:58:58.865Z,99923.16
2018-05-07T20:01:28.250Z,99922.77
2018-05-07T20:03:57.697Z,99920.80
2018-05-07T20:06:28.434Z,99926.27
2018-05-07T20:08:58.492Z,99922.58
2018-05-07T20:11:29.405Z,99924.30
2018-05-07T20:26:58.799Z,99923.78
2018-05-07T20:29:28.082Z,99923.78
2018-05-07T20:31:57.321Z,99920.83
2018-05-07T20:34:26.570Z,99932.84
2018-05-07T20:36:56.600Z,99925.78
2018-05-07T20:39:28.006Z,99920.86
2018-05-07T20:41:58.091Z,99921.25
2018-05-07T20:44:27.780Z,99920.85
2018-05-07T20:46:57.043Z,99918.69
2018-05-07T20:49:26.300Z,99915.55
2018-05-07T20:51:55.631Z,99919.67
2018-05-07T20:54:24.873Z,99912.98
2018-05-07T20:56:54.977Z,99910.98
2018-05-07T20:59:24.208Z,99919.65
2018-05-07T21:01:54.910Z,99921.79
2018-05-07T21:04:24.206Z,99916.87
2018-05-07T21:06:53.670Z,99920.22
2018-05-07T21:09:22.895Z,99920.98
2018-05-07T21:11:52.124Z,99914.82
2018-05-07T21:14:22.143Z,99914.40
2018-05-07T21:16:52.204Z,99905.31
2018-05-07T21:19:22.879Z,99903.09
2018-05-07T21:21:52.149Z,99900.46
2018-05-07T21:24:21.499Z,99898.48
2018-05-07T21:26:50.733Z,99905.33
2018-05-07T21:29:20.283Z,99907.85
2018-05-07T21:31:49.695Z,99913.16
2018-05-07T21:34:19.698Z,99902.50
2018-05-07T21:36:49.761Z,99897.30
2018-05-07T21:39:19.913Z,99893.90
2018-05-07T21:41:49.154Z,99897.90
2018-05-07T21:44:18.405Z,99896.86
2018-05-07T21:46:47.628Z,99906.23
2018-05-07T21:49:16.871Z,99901.27
2018-05-07T21:51:46.178Z,99899.45
2018-05-07T21:54:15.421Z,99894.51
2018-05-07T21:56:45.500Z,99894.02
2018-05-07T21:59:14.742Z,99890.45
2018-05-07T22:01:44.744Z,99886.30
2018-05-07T22:04:13.995Z,99889.42
2018-05-07T22:06:43.209Z,99887.40
2018-05-07T22:09:12.414Z,99887.50
2018-05-07T22:11:41.680Z,99878.73
2018-05-07T22:14:11.620Z,99876.24
2018-05-07T22:16:40.995Z,99879.47
2018-05-07T22:19:10.134Z,99873.55
2018-05-07T22:21:39.377Z,99879.98
2018-05-07T22:24:08.595Z,99874.86
2018-05-07T22:26:37.849Z,99880.50
2018-05-07T22:29:07.053Z,99890.86
2018-05-07T22:31:36.273Z,99888.05
2018-05-07T22:34:05.506Z,99886.19
2018-05-07T22:36:34.754Z,99887.37
2018-05-07T22:39:28.025Z,99882.98
2018-05-07T22:41:57.251Z,99879.73
2018-05-07T22:44:26.448Z,99880.70
2018-05-07T22:46:55.694Z,99877.67
2018-05-07T22:49:25.123Z,99875.06
2018-05-07T22:51:54.366Z,99872.49
2018-05-07T22:54:23.710Z,99875.66
2018-05-07T22:56:53.674Z,99871.87
2018-05-07T22:59:23.004Z,99872.64
2018-05-07T23:01:52.247Z,99871.34
2018-05-07T23:04:21.464Z,99872.69
2018-05-07T23:06:50.677Z,99876.02
2018-05-07T23:09:19.886Z,99870.63
2018-05-07T23:11:49.113Z,99863.79
2018-05-07T23:14:19.121Z,99859.84
2018-05-07T23:16:48.367Z,99857.73
2018-05-07T23:19:17.587Z,99847.81
2018-05-07T23:21:46.814Z,99852.22
2018-05-07T23:24:16.037Z,99851.03
2018-05-07T23:26:45.233Z,99853.01
2018-05-07T23:29:14.464Z,99846.95
2018-05-07T23:31:43.704Z,99847.19
2018-05-07T23:34:13.706Z,99844.05
2018-05-07T23:36:42.956Z,99843.42
2018-05-07T23:39:12.160Z,99841.47
2018-05-07T23:41:41.378Z,99844.56
2018-05-07T23:44:10.611Z,99839.82
2018-05-07T23:46:40.665Z,99840.11
2018-05-07T23:49:10.023Z,99833.39
2018-05-07T23:51:40.090Z,99836.66
2018-05-07T23:54:09.321Z,99831.58
2018-05-07T23:56:38.518Z,99830.37
2018-05-07T23:59:07.784Z,99827.20
